createdAt,value
2023-04-27T11:12:27.111Z,16.71
2023-04-27T11:13:27.056Z,17.16
2023-04-27T11:14:26.997Z,17.54
2023-04-27T11:15:26.989Z,17.64
2023-04-27T11:16:27.000Z,18.03
2023-04-27T11:17:26.985Z,18.29
2023-04-27T11:18:26.955Z,18.29
2023-04-27T11:19:26.958Z,18.26
2023-04-27T11:20:26.944Z,18.39
2023-04-27T11:21:26.930Z,18.52
2023-04-27T11:22:26.915Z,18.69
2023-04-27T11:23:26.917Z,18.73
2023-04-27T11:24:26.884Z,18.52
2023-04-27T11:25:26.889Z,18.35
2023-04-27T11:26:26.860Z,18.69
2023-04-27T11:27:26.841Z,19.06
2023-04-27T11:28:26.849Z,18.92
2023-04-27T11:29:26.842Z,19.04
2023-04-27T11:30:26.836Z,18.95
2023-04-27T11:31:26.853Z,18.39
2023-04-27T11:32:26.884Z,18.57
2023-04-27T11:33:26.792Z,18.88
2023-04-27T11:34:26.788Z,19.13
2023-04-27T11:35:26.766Z,19.36
2023-04-27T11:36:26.753Z,19.36
2023-04-27T11:37:26.735Z,19.78
2023-04-27T11:38:26.813Z,19.29
2023-04-27T11:39:26.794Z,19.29
2023-04-27T11:40:26.723Z,18.50
2023-04-27T11:41:26.677Z,18.60
2023-04-27T11:42:26.692Z,18.69
2023-04-27T11:43:26.669Z,18.90
2023-04-27T11:44:26.691Z,18.81
2023-04-27T11:45:26.634Z,18.37
2023-04-27T11:46:26.693Z,18.39
2023-04-27T11:47:26.676Z,18.44
2023-04-27T11:48:26.610Z,17.84
2023-04-27T11:49:26.584Z,17.78
2023-04-27T11:50:26.608Z,18.20
2023-04-27T11:51:26.563Z,18.23
2023-04-27T11:52:26.578Z,18.21
2023-04-27T11:53:26.570Z,18.37
2023-04-27T11:54:26.534Z,18.41
2023-04-27T11:55:26.528Z,18.81
2023-04-27T11:56:26.534Z,19.08
2023-04-27T11:57:26.496Z,18.92
2023-04-27T11:58:26.489Z,18.70
2023-04-27T11:59:26.493Z,18.75
2023-04-27T12:00:26.485Z,18.45
2023-04-27T12:01:36.953Z,18.52
2023-04-27T12:02:26.549Z,18.44
2023-04-27T12:03:26.888Z,18.00
2023-04-27T12:04:26.582Z,18.29
2023-04-27T12:05:26.530Z,18.08
2023-04-27T12:06:32.617Z,17.89
2023-04-27T12:07:26.401Z,18.37
2023-04-27T12:08:26.376Z,18.08
2023-04-27T12:09:26.375Z,18.11
2023-04-27T12:10:26.366Z,17.99
2023-04-27T12:11:26.352Z,17.36
2023-04-27T12:12:26.348Z,17.63
2023-04-27T12:13:26.326Z,17.89
2023-04-27T12:14:26.333Z,17.99
2023-04-27T12:15:26.322Z,17.87
2023-04-27T12:16:26.320Z,18.32
2023-04-27T12:17:26.339Z,18.07
2023-04-27T12:18:26.297Z,18.32
2023-04-27T12:19:26.269Z,18.78
2023-04-27T12:20:26.252Z,18.85
2023-04-27T12:21:26.250Z,18.98
2023-04-27T12:22:26.226Z,18.57
2023-04-27T12:23:26.214Z,18.84
2023-04-27T12:24:26.198Z,19.18
2023-04-27T12:25:26.191Z,19.43
2023-04-27T12:26:26.179Z,19.11
2023-04-27T12:27:26.172Z,19.07
2023-04-27T12:28:26.171Z,19.16
2023-04-27T12:29:26.140Z,18.99
2023-04-27T12:30:26.146Z,19.28
2023-04-27T12:31:27.816Z,19.55
2023-04-27T12:32:26.169Z,19.51
2023-04-27T12:33:26.109Z,18.98
2023-04-27T12:34:26.085Z,19.14
2023-04-27T12:35:26.096Z,18.98
2023-04-27T12:36:26.085Z,19.55
2023-04-27T12:37:27.090Z,19.47
2023-04-27T12:38:26.036Z,19.25
2023-04-27T12:39:26.047Z,19.43
2023-04-27T12:40:26.025Z,19.47
2023-04-27T12:41:26.012Z,19.43
2023-04-27T12:42:26.019Z,18.87
2023-04-27T12:43:25.975Z,18.75
2023-04-27T12:44:25.991Z,18.90
2023-04-27T12:45:26.012Z,19.06
2023-04-27T12:46:26.061Z,19.04
2023-04-27T12:48:25.953Z,19.88
2023-04-27T12:49:25.913Z,19.92
2023-04-27T12:50:25.941Z,18.73
2023-04-27T12:51:25.919Z,18.50
2023-04-27T12:52:25.910Z,19.21
2023-04-27T12:53:25.884Z,19.06
2023-04-27T12:54:25.864Z,19.23
2023-04-27T12:55:33.813Z,19.77
2023-04-27T12:56:25.851Z,20.52
2023-04-27T12:57:25.848Z,20.54
2023-04-27T12:58:25.849Z,20.57
2023-04-27T12:59:25.825Z,20.74
2023-04-27T13:00:25.842Z,20.28
2023-04-27T13:01:25.838Z,19.66
2023-04-27T13:02:25.881Z,19.56
2023-04-27T13:03:25.911Z,19.50
2023-04-27T13:04:26.063Z,19.86
2023-04-27T13:05:25.785Z,19.22
2023-04-27T13:06:25.748Z,19.66
2023-04-27T13:07:25.751Z,19.65
2023-04-27T13:08:25.756Z,19.91
2023-04-27T13:09:25.713Z,20.10
2023-04-27T13:10:25.739Z,19.10
2023-04-27T13:11:25.709Z,18.47
2023-04-27T13:12:25.694Z,18.42
2023-04-27T13:13:25.699Z,18.47
2023-04-27T13:14:25.692Z,18.85
2023-04-27T13:15:25.668Z,19.59
2023-04-27T13:16:25.952Z,19.55
2023-04-27T13:17:25.661Z,20.21
2023-04-27T13:18:25.649Z,20.08
2023-04-27T13:19:25.617Z,19.94
2023-04-27T13:20:25.618Z,19.41
2023-04-27T13:21:25.594Z,18.80
2023-04-27T13:22:25.588Z,18.55
2023-04-27T13:23:25.578Z,18.91
2023-04-27T13:24:25.565Z,18.63
2023-04-27T13:25:25.562Z,18.87
2023-04-27T13:26:25.566Z,18.95
2023-04-27T13:27:25.548Z,18.94
2023-04-27T13:28:25.536Z,19.08
2023-04-27T13:29:25.516Z,19.22
2023-04-27T13:30:25.552Z,19.40
2023-04-27T13:31:25.527Z,18.98
2023-04-27T13:32:25.545Z,18.92
2023-04-27T13:33:25.519Z,18.75
2023-04-27T13:34:25.495Z,18.37
2023-04-27T13:35:25.486Z,18.51
2023-04-27T13:36:25.491Z,18.60
2023-04-27T13:37:25.471Z,19.13
2023-04-27T13:38:25.449Z,18.98
2023-04-27T13:39:25.437Z,19.14
2023-04-27T13:40:25.469Z,19.22
2023-04-27T13:41:25.432Z,18.81
2023-04-27T13:42:25.411Z,19.04
2023-04-27T13:43:25.416Z,19.43
2023-04-27T13:44:25.431Z,20.18
2023-04-27T13:45:25.445Z,21.07
2023-04-27T13:46:25.552Z,21.27
2023-04-27T13:47:25.444Z,21.43
2023-04-27T13:48:25.392Z,21.21
2023-04-27T13:49:25.357Z,21.14
2023-04-27T13:50:25.393Z,21.44
2023-04-27T13:51:25.382Z,22.02
2023-04-27T13:52:25.436Z,21.68
2023-04-27T13:53:25.346Z,21.69
2023-04-27T13:54:25.344Z,22.05
2023-04-27T13:55:25.326Z,22.37
2023-04-27T13:56:25.363Z,22.91
2023-04-27T13:57:25.320Z,22.42
2023-04-27T13:58:26.274Z,22.06
2023-04-27T13:59:25.329Z,22.24
2023-04-27T14:00:25.302Z,22.39
2023-04-27T14:01:25.399Z,22.18
2023-04-27T14:02:25.503Z,22.27
2023-04-27T14:03:25.478Z,22.25
2023-04-27T14:04:25.405Z,21.90
2023-04-27T14:05:25.278Z,21.42
2023-04-27T14:06:25.297Z,22.27
2023-04-27T14:07:25.271Z,22.75
2023-04-27T14:08:25.250Z,22.47
2023-04-27T14:09:25.243Z,22.80
2023-04-27T14:10:25.240Z,22.91
2023-04-27T14:11:25.255Z,22.20
2023-04-27T14:12:25.227Z,21.91
2023-04-27T14:13:25.214Z,21.91
2023-04-27T14:14:25.255Z,22.22
2023-04-27T14:15:25.206Z,22.60
2023-04-27T14:16:25.265Z,22.39
2023-04-27T14:17:25.214Z,22.54
2023-04-27T14:18:31.959Z,21.24
2023-04-27T14:19:25.189Z,21.22
2023-04-27T14:20:25.189Z,21.07
2023-04-27T14:21:25.200Z,21.53
2023-04-27T14:22:25.174Z,21.28
2023-04-27T14:23:25.182Z,20.73
2023-04-27T14:24:25.169Z,20.39
2023-04-27T14:25:25.189Z,20.33
2023-04-27T14:26:25.191Z,21.32
2023-04-27T14:27:25.162Z,21.09
2023-04-27T14:28:25.163Z,21.61
2023-04-27T14:29:25.139Z,22.46
2023-04-27T14:30:25.132Z,23.22
2023-04-27T14:31:25.196Z,23.69
2023-04-27T14:32:25.198Z,23.10
2023-04-27T14:33:25.147Z,22.75
2023-04-27T14:34:25.110Z,22.17
2023-04-27T14:35:25.102Z,22.40
2023-04-27T14:36:25.137Z,22.30
2023-04-27T14:37:25.090Z,22.42
2023-04-27T14:38:25.087Z,23.02
2023-04-27T14:39:25.085Z,22.49
2023-04-27T14:40:25.108Z,22.60
2023-04-27T14:41:25.102Z,22.51
2023-04-27T14:42:25.077Z,22.76
2023-04-27T14:43:25.069Z,21.79
2023-04-27T14:44:25.085Z,21.59
2023-04-27T14:45:27.432Z,21.75
2023-04-27T14:46:25.180Z,21.56
2023-04-27T14:47:25.171Z,21.69
2023-04-27T14:48:25.065Z,21.61
2023-04-27T14:49:25.057Z,21.82
2023-04-27T14:50:25.036Z,21.59
2023-04-27T14:51:25.056Z,21.50
2023-04-27T14:52:25.061Z,21.94
2023-04-27T14:53:25.032Z,21.53
2023-04-27T14:54:25.011Z,21.38
2023-04-27T14:55:25.019Z,21.29
2023-04-27T14:56:25.024Z,21.49
2023-04-27T14:57:25.005Z,21.79
2023-04-27T14:58:24.988Z,21.65
2023-04-27T14:59:24.974Z,21.19
2023-04-27T15:00:24.972Z,21.42
2023-04-27T15:01:25.024Z,21.50
2023-04-27T15:02:25.036Z,21.37
2023-04-27T15:03:25.074Z,21.22
2023-04-27T15:04:25.044Z,20.94
2023-04-27T15:05:24.937Z,20.55
2023-04-27T15:06:24.934Z,20.74
2023-04-27T15:07:24.932Z,21.62
2023-04-27T15:08:24.923Z,21.64
2023-04-27T15:09:24.917Z,21.75
2023-04-27T15:10:24.907Z,22.00
2023-04-27T15:11:24.917Z,21.04
2023-04-27T15:12:24.906Z,21.21
2023-04-27T15:13:24.901Z,21.61
2023-04-27T15:14:24.907Z,22.27
2023-04-27T15:15:24.869Z,22.31
2023-04-27T15:16:24.929Z,22.80
2023-04-27T15:17:24.885Z,23.32
2023-04-27T15:18:24.854Z,23.09
2023-04-27T15:19:24.858Z,22.95
2023-04-27T15:20:24.839Z,23.27
2023-04-27T15:21:24.829Z,22.88
2023-04-27T15:22:24.844Z,22.64
2023-04-27T15:23:24.837Z,22.51
2023-04-27T15:24:24.835Z,22.61
2023-04-27T15:25:24.824Z,22.46
2023-04-27T15:26:24.807Z,22.03
2023-04-27T15:27:24.819Z,21.80
2023-04-27T15:28:24.795Z,21.62
2023-04-27T15:29:24.779Z,21.67
2023-04-27T15:30:24.798Z,21.86
2023-04-27T15:31:24.900Z,21.79
2023-04-27T15:32:24.786Z,21.72
2023-04-27T15:33:24.790Z,21.75
2023-04-27T15:34:24.771Z,22.05
2023-04-27T15:35:24.766Z,22.17
2023-04-27T15:36:24.741Z,22.09
2023-04-27T15:37:24.761Z,21.99
2023-04-27T15:38:24.750Z,21.69
2023-04-27T15:39:24.750Z,21.29
2023-04-27T15:40:24.745Z,20.99
2023-04-27T15:41:24.728Z,21.21
2023-04-27T15:42:24.718Z,21.07
2023-04-27T15:43:24.733Z,21.82
2023-04-27T15:44:24.724Z,22.02
2023-04-27T15:45:24.713Z,22.45
2023-04-27T15:46:24.702Z,22.88
2023-04-27T15:47:24.701Z,23.10
2023-04-27T15:48:24.689Z,22.95
2023-04-27T15:49:24.694Z,22.92
2023-04-27T15:50:24.680Z,22.83
2023-04-27T15:51:24.664Z,22.92
2023-04-27T15:52:24.679Z,22.52
2023-04-27T15:53:24.648Z,22.14
2023-04-27T15:54:24.655Z,22.03
2023-04-27T15:55:24.634Z,21.58
2023-04-27T15:56:24.646Z,21.43
2023-04-27T15:57:24.663Z,21.22
2023-04-27T15:58:24.635Z,21.06
2023-04-27T15:59:24.614Z,20.92
2023-04-27T16:00:24.601Z,20.59
2023-04-27T16:01:24.634Z,20.84
2023-04-27T16:02:24.733Z,20.87
2023-04-27T16:03:24.623Z,20.97
2023-04-27T16:04:24.745Z,20.74
2023-04-27T16:05:24.577Z,20.58
2023-04-27T16:06:24.561Z,20.38
2023-04-27T16:07:24.594Z,20.08
2023-04-27T16:08:24.547Z,20.01
2023-04-27T16:09:24.583Z,19.96
2023-04-27T16:10:24.529Z,20.14
2023-04-27T16:11:24.758Z,20.32
2023-04-27T16:12:24.547Z,19.99
2023-04-27T16:13:24.524Z,19.91
2023-04-27T16:14:24.504Z,19.87
2023-04-27T16:15:24.525Z,19.76
2023-04-27T16:16:24.555Z,19.59
2023-04-27T16:17:24.558Z,19.40
2023-04-27T16:18:24.472Z,19.29
2023-04-27T16:19:24.492Z,19.32
2023-04-27T16:21:32.140Z,19.18
2023-04-27T16:22:32.147Z,19.33
2023-04-27T16:23:32.121Z,19.19
